sensor_id;sensor_type;location;lat;lon;timestamp;P1;durP1;ratioP1;P2;durP2;ratioP2
28774;SDS011;15926;51.348;6.596;2022-10-31T05:05:18;13.77;;;8.70;;
28774;SDS011;15926;51.348;6.596;2022-10-31T05:07:45;13.15;;;8.70;;
28774;SDS011;15926;51.348;6.596;2022-10-31T05:10:12;13.50;;;8.93;;
28774;SDS011;15926;51.348;6.596;2022-10-31T05:12:45;12.20;;;8.38;;
28774;SDS011;15926;51.348;6.596;2022-10-31T05:15:12;13.68;;;8.30;;
28774;SDS011;15926;51.348;6.596;2022-10-31T05:17:37;16.58;;;9.02;;
28774;SDS011;15926;51.348;6.596;2022-10-31T05:20:04;15.43;;;8.65;;
28774;SDS011;15926;51.348;6.596;2022-10-31T05:22:30;11.63;;;8.20;;
28774;SDS011;15926;51.348;6.596;2022-10-31T05:24:56;10.90;;;8.10;;
28774;SDS011;15926;51.348;6.596;2022-10-31T05:27:22;11.05;;;7.68;;
28774;SDS011;15926;51.348;6.596;2022-10-31T05:29:48;15.68;;;8.52;;
28774;SDS011;15926;51.348;6.596;2022-10-31T05:32:14;13.38;;;8.82;;
28774;SDS011;15926;51.348;6.596;2022-10-31T05:34:40;13.00;;;8.57;;
28774;SDS011;15926;51.348;6.596;2022-10-31T05:37:06;13.90;;;8.52;;
28774;SDS011;15926;51.348;6.596;2022-10-31T05:39:32;12.88;;;8.48;;
28774;SDS011;15926;51.348;6.596;2022-10-31T05:41:58;18.13;;;9.20;;
28774;SDS011;15926;51.348;6.596;2022-10-31T05:44:24;17.92;;;9.65;;
28774;SDS011;15926;51.348;6.596;2022-10-31T05:46:50;16.83;;;8.57;;
28774;SDS011;15926;51.348;6.596;2022-10-31T05:49:16;15.07;;;8.82;;
28774;SDS011;15926;51.348;6.596;2022-10-31T05:51:42;15.45;;;8.80;;
28774;SDS011;15926;51.348;6.596;2022-10-31T05:54:08;15.13;;;8.15;;
28774;SDS011;15926;51.348;6.596;2022-10-31T05:56:34;17.00;;;8.40;;
28774;SDS011;15926;51.348;6.596;2022-10-31T05:59:00;22.88;;;9.55;;
28774;SDS011;15926;51.348;6.596;2022-10-31T06:01:26;16.20;;;8.48;;
28774;SDS011;15926;51.348;6.596;2022-10-31T06:03:52;15.32;;;8.32;;
28774;SDS011;15926;51.348;6.596;2022-10-31T06:06:19;14.60;;;8.52;;
28774;SDS011;15926;51.348;6.596;2022-10-31T06:08:45;15.38;;;8.18;;
28774;SDS011;15926;51.348;6.596;2022-10-31T06:11:11;13.05;;;8.40;;
28774;SDS011;15926;51.348;6.596;2022-10-31T06:13:37;13.90;;;8.07;;
28774;SDS011;15926;51.348;6.596;2022-10-31T06:16:03;10.88;;;7.75;;
28774;SDS011;15926;51.348;6.596;2022-10-31T06:18:29;21.17;;;9.02;;
28774;SDS011;15926;51.348;6.596;2022-10-31T06:20:55;11.88;;;7.57;;
28774;SDS011;15926;51.348;6.596;2022-10-31T06:23:21;14.85;;;7.38;;
28774;SDS011;15926;51.348;6.596;2022-10-31T06:25:51;13.82;;;7.93;;
28774;SDS011;15926;51.348;6.596;2022-10-31T06:28:17;15.77;;;7.78;;
28774;SDS011;15926;51.348;6.596;2022-10-31T06:30:43;11.68;;;7.97;;
28774;SDS011;15926;51.348;6.596;2022-10-31T06:33:09;13.65;;;8.20;;
28774;SDS011;15926;51.348;6.596;2022-10-31T06:35:35;12.80;;;7.50;;
28774;SDS011;15926;51.348;6.596;2022-10-31T06:38:01;11.63;;;8.23;;
28774;SDS011;15926;51.348;6.596;2022-10-31T06:40:27;14.18;;;8.63;;
28774;SDS011;15926;51.348;6.596;2022-10-31T06:42:59;15.85;;;8.05;;
28774;SDS011;15926;51.348;6.596;2022-10-31T06:45:26;11.82;;;7.57;;
28774;SDS011;15926;51.348;6.596;2022-10-31T06:47:52;15.25;;;9.00;;
28774;SDS011;15926;51.348;6.596;2022-10-31T06:50:19;14.23;;;8.52;;
28774;SDS011;15926;51.348;6.596;2022-10-31T06:52:52;11.85;;;8.57;;
28774;SDS011;15926;51.348;6.596;2022-10-31T06:55:18;12.73;;;8.73;;
28774;SDS011;15926;51.348;6.596;2022-10-31T06:57:53;16.48;;;8.15;;
28774;SDS011;15926;51.348;6.596;2022-10-31T07:00:20;9.85;;;7.45;;
28774;SDS011;15926;51.348;6.596;2022-10-31T07:03:09;11.68;;;7.45;;
28774;SDS011;15926;51.348;6.596;2022-10-31T07:05:32;14.38;;;7.68;;
28774;SDS011;15926;51.348;6.596;2022-10-31T07:08:04;15.70;;;8.70;;
28774;SDS011;15926;51.348;6.596;2022-10-31T07:10:32;14.75;;;8.32;;
28774;SDS011;15926;51.348;6.596;2022-10-31T07:12:59;12.48;;;8.55;;
28774;SDS011;15926;51.348;6.596;2022-10-31T07:15:25;13.10;;;8.75;;
28774;SDS011;15926;51.348;6.596;2022-10-31T07:17:51;12.70;;;8.82;;
28774;SDS011;15926;51.348;6.596;2022-10-31T07:20:17;15.40;;;9.18;;
28774;SDS011;15926;51.348;6.596;2022-10-31T07:22:44;17.05;;;9.70;;
28774;SDS011;15926;51.348;6.596;2022-10-31T07:25:10;16.95;;;9.05;;
28774;SDS011;15926;51.348;6.596;2022-10-31T07:27:37;14.30;;;8.77;;
28774;SDS011;15926;51.348;6.596;2022-10-31T07:30:03;16.58;;;9.57;;
28774;SDS011;15926;51.348;6.596;2022-10-31T07:32:36;12.90;;;9.25;;
28774;SDS011;15926;51.348;6.596;2022-10-31T07:35:03;12.02;;;9.05;;
28774;SDS011;15926;51.348;6.596;2022-10-31T07:37:29;14.85;;;9.05;;
28774;SDS011;15926;51.348;6.596;2022-10-31T07:39:55;15.00;;;9.43;;
28774;SDS011;15926;51.348;6.596;2022-10-31T07:42:21;20.98;;;9.82;;
28774;SDS011;15926;51.348;6.596;2022-10-31T07:44:47;15.45;;;9.70;;
28774;SDS011;15926;51.348;6.596;2022-10-31T07:47:13;15.20;;;9.77;;
28774;SDS011;15926;51.348;6.596;2022-10-31T07:49:39;15.90;;;10.30;;
28774;SDS011;15926;51.348;6.596;2022-10-31T07:52:05;15.25;;;9.25;;
28774;SDS011;15926;51.348;6.596;2022-10-31T07:54:31;15.27;;;9.15;;
28774;SDS011;15926;51.348;6.596;2022-10-31T07:56:57;17.70;;;9.35;;
28774;SDS011;15926;51.348;6.596;2022-10-31T07:59:23;15.30;;;9.85;;
28774;SDS011;15926;51.348;6.596;2022-10-31T08:01:50;13.82;;;9.93;;
28774;SDS011;15926;51.348;6.596;2022-10-31T08:04:16;17.58;;;10.10;;
28774;SDS011;15926;51.348;6.596;2022-10-31T08:06:42;18.13;;;10.77;;
28774;SDS011;15926;51.348;6.596;2022-10-31T08:09:08;17.98;;;10.52;;
28774;SDS011;15926;51.348;6.596;2022-10-31T08:11:34;18.30;;;9.68;;
28774;SDS011;15926;51.348;6.596;2022-10-31T08:14:00;15.23;;;9.75;;
28774;SDS011;15926;51.348;6.596;2022-10-31T08:16:27;22.80;;;10.50;;
28774;SDS011;15926;51.348;6.596;2022-10-31T08:18:53;16.08;;;9.80;;
28774;SDS011;15926;51.348;6.596;2022-10-31T08:21:20;20.45;;;10.65;;
28774;SDS011;15926;51.348;6.596;2022-10-31T08:23:46;18.23;;;9.95;;
28774;SDS011;15926;51.348;6.596;2022-10-31T08:26:12;15.15;;;11.85;;
28774;SDS011;15926;51.348;6.596;2022-10-31T08:28:38;18.98;;;10.50;;
28774;SDS011;15926;51.348;6.596;2022-10-31T08:31:04;21.67;;;11.23;;
28774;SDS011;15926;51.348;6.596;2022-10-31T08:33:31;17.77;;;11.57;;
28774;SDS011;15926;51.348;6.596;2022-10-31T08:36:00;20.35;;;11.43;;
28774;SDS011;15926;51.348;6.596;2022-10-31T08:38:26;26.55;;;12.02;;
28774;SDS011;15926;51.348;6.596;2022-10-31T08:40:52;20.35;;;12.10;;
28774;SDS011;15926;51.348;6.596;2022-10-31T08:43:18;22.35;;;12.60;;
28774;SDS011;15926;51.348;6.596;2022-10-31T08:45:44;20.77;;;11.23;;
28774;SDS011;15926;51.348;6.596;2022-10-31T08:48:13;20.17;;;12.57;;
28774;SDS011;15926;51.348;6.596;2022-10-31T08:50:40;19.58;;;12.57;;
28774;SDS011;15926;51.348;6.596;2022-10-31T08:53:07;23.90;;;13.23;;
28774;SDS011;15926;51.348;6.596;2022-10-31T08:55:34;24.40;;;12.43;;
28774;SDS011;15926;51.348;6.596;2022-10-31T08:58:03;20.83;;;12.02;;
28774;SDS011;15926;51.348;6.596;2022-10-31T09:00:30;23.55;;;13.15;;
28774;SDS011;15926;51.348;6.596;2022-10-31T09:02:56;33.92;;;14.27;;
28774;SDS011;15926;51.348;6.596;2022-10-31T09:05:22;24.13;;;12.70;;
28774;SDS011;15926;51.348;6.596;2022-10-31T09:07:48;18.35;;;11.82;;
28774;SDS011;15926;51.348;6.596;2022-10-31T09:10:14;24.95;;;13.70;;
28774;SDS011;15926;51.348;6.596;2022-10-31T09:12:40;23.13;;;13.15;;
28774;SDS011;15926;51.348;6.596;2022-10-31T09:15:07;20.67;;;13.05;;
28774;SDS011;15926;51.348;6.596;2022-10-31T09:17:33;20.70;;;12.38;;
28774;SDS011;15926;51.348;6.596;2022-10-31T09:19:59;21.23;;;13.27;;
28774;SDS011;15926;51.348;6.596;2022-10-31T09:22:25;23.33;;;12.82;;
28774;SDS011;15926;51.348;6.596;2022-10-31T09:24:51;25.25;;;13.50;;
28774;SDS011;15926;51.348;6.596;2022-10-31T09:27:17;21.77;;;13.20;;
28774;SDS011;15926;51.348;6.596;2022-10-31T09:29:43;21.00;;;12.63;;
28774;SDS011;15926;51.348;6.596;2022-10-31T09:32:09;21.30;;;13.65;;
28774;SDS011;15926;51.348;6.596;2022-10-31T09:34:35;24.35;;;13.15;;
28774;SDS011;15926;51.348;6.596;2022-10-31T09:37:01;20.30;;;12.75;;
28774;SDS011;15926;51.348;6.596;2022-10-31T09:39:27;21.73;;;12.60;;
28774;SDS011;15926;51.348;6.596;2022-10-31T09:42:14;16.73;;;11.25;;
28774;SDS011;15926;51.348;6.596;2022-10-31T09:52:24;23.30;;;12.52;;
28774;SDS011;15926;51.348;6.596;2022-10-31T09:54:53;24.90;;;13.43;;
28774;SDS011;15926;51.348;6.596;2022-10-31T09:57:28;22.02;;;12.18;;
28774;SDS011;15926;51.348;6.596;2022-10-31T09:59:55;19.33;;;11.13;;
28774;SDS011;15926;51.348;6.596;2022-10-31T10:02:38;19.33;;;11.43;;
28774;SDS011;15926;51.348;6.596;2022-10-31T10:05:12;20.88;;;11.30;;
28774;SDS011;15926;51.348;6.596;2022-10-31T10:07:52;18.00;;;11.13;;
28774;SDS011;15926;51.348;6.596;2022-10-31T10:13:09;15.85;;;10.60;;
28774;SDS011;15926;51.348;6.596;2022-10-31T10:21:12;23.50;;;11.73;;
28774;SDS011;15926;51.348;6.596;2022-10-31T10:23:56;16.75;;;9.57;;
28774;SDS011;15926;51.348;6.596;2022-10-31T10:26:31;20.33;;;10.90;;
28774;SDS011;15926;51.348;6.596;2022-10-31T10:29:01;20.95;;;10.25;;
28774;SDS011;15926;51.348;6.596;2022-10-31T10:31:28;16.40;;;9.75;;
28774;SDS011;15926;51.348;6.596;2022-10-31T10:34:06;17.17;;;10.35;;
28774;SDS011;15926;51.348;6.596;2022-10-31T10:36:38;17.45;;;10.38;;
28774;SDS011;15926;51.348;6.596;2022-10-31T10:39:08;18.17;;;9.45;;
28774;SDS011;15926;51.348;6.596;2022-10-31T10:41:36;17.23;;;9.63;;
28774;SDS011;15926;51.348;6.596;2022-10-31T10:44:07;15.95;;;9.23;;
28774;SDS011;15926;51.348;6.596;2022-10-31T10:46:47;16.73;;;8.55;;
28774;SDS011;15926;51.348;6.596;2022-10-31T10:59:50;20.38;;;9.63;;
28774;SDS011;15926;51.348;6.596;2022-10-31T11:02:18;24.00;;;10.48;;
28774;SDS011;15926;51.348;6.596;2022-10-31T11:04:45;17.85;;;8.57;;
28774;SDS011;15926;51.348;6.596;2022-10-31T11:07:12;16.60;;;8.32;;
28774;SDS011;15926;51.348;6.596;2022-10-31T11:09:38;17.85;;;8.52;;
28774;SDS011;15926;51.348;6.596;2022-10-31T11:12:14;19.95;;;9.65;;
28774;SDS011;15926;51.348;6.596;2022-10-31T11:14:58;14.98;;;8.98;;
28774;SDS011;15926;51.348;6.596;2022-10-31T11:17:27;11.90;;;8.82;;
28774;SDS011;15926;51.348;6.596;2022-10-31T11:23:02;10.93;;;8.63;;
28774;SDS011;15926;51.348;6.596;2022-10-31T11:25:29;14.48;;;8.90;;
28774;SDS011;15926;51.348;6.596;2022-10-31T11:27:59;14.38;;;8.07;;
28774;SDS011;15926;51.348;6.596;2022-10-31T11:30:25;19.02;;;9.20;;
28774;SDS011;15926;51.348;6.596;2022-10-31T11:32:51;15.68;;;8.30;;
28774;SDS011;15926;51.348;6.596;2022-10-31T11:35:18;14.63;;;7.85;;
28774;SDS011;15926;51.348;6.596;2022-10-31T11:37:45;18.52;;;7.90;;
28774;SDS011;15926;51.348;6.596;2022-10-31T11:40:16;16.92;;;7.50;;
28774;SDS011;15926;51.348;6.596;2022-10-31T11:42:42;14.27;;;6.55;;
28774;SDS011;15926;51.348;6.596;2022-10-31T11:45:16;13.63;;;6.78;;
28774;SDS011;15926;51.348;6.596;2022-10-31T11:47:44;10.48;;;5.88;;
28774;SDS011;15926;51.348;6.596;2022-10-31T11:50:17;10.15;;;6.28;;
28774;SDS011;15926;51.348;6.596;2022-10-31T11:52:44;9.85;;;6.68;;
28774;SDS011;15926;51.348;6.596;2022-10-31T11:57:46;10.82;;;5.07;;
28774;SDS011;15926;51.348;6.596;2022-10-31T12:00:23;12.43;;;6.07;;
28774;SDS011;15926;51.348;6.596;2022-10-31T12:02:49;9.10;;;5.72;;
28774;SDS011;15926;51.348;6.596;2022-10-31T12:07:45;11.00;;;6.10;;
28774;SDS011;15926;51.348;6.596;2022-10-31T12:10:12;8.75;;;5.20;;
28774;SDS011;15926;51.348;6.596;2022-10-31T12:23:36;8.27;;;5.15;;
28774;SDS011;15926;51.348;6.596;2022-10-31T12:26:11;8.32;;;5.38;;
28774;SDS011;15926;51.348;6.596;2022-10-31T12:36:15;10.43;;;5.43;;
28774;SDS011;15926;51.348;6.596;2022-10-31T12:52:23;7.20;;;4.53;;
28774;SDS011;15926;51.348;6.596;2022-10-31T13:00:04;6.72;;;4.57;;
28774;SDS011;15926;51.348;6.596;2022-10-31T13:02:48;8.82;;;4.38;;
28774;SDS011;15926;51.348;6.596;2022-10-31T13:05:19;8.15;;;4.55;;
28774;SDS011;15926;51.348;6.596;2022-10-31T13:10:34;13.43;;;3.97;;
28774;SDS011;15926;51.348;6.596;2022-10-31T13:13:05;7.72;;;3.97;;
28774;SDS011;15926;51.348;6.596;2022-10-31T13:15:33;5.03;;;4.30;;
28774;SDS011;15926;51.348;6.596;2022-10-31T13:18:03;11.20;;;4.45;;
28774;SDS011;15926;51.348;6.596;2022-10-31T13:20:32;12.25;;;4.95;;
28774;SDS011;15926;51.348;6.596;2022-10-31T13:25:38;9.23;;;3.88;;
28774;SDS011;15926;51.348;6.596;2022-10-31T13:28:12;9.75;;;3.50;;
28774;SDS011;15926;51.348;6.596;2022-10-31T13:30:46;10.13;;;4.18;;
28774;SDS011;15926;51.348;6.596;2022-10-31T13:33:14;8.95;;;3.63;;
28774;SDS011;15926;51.348;6.596;2022-10-31T13:35:58;7.70;;;3.30;;
28774;SDS011;15926;51.348;6.596;2022-10-31T13:41:03;5.38;;;3.30;;
28774;SDS011;15926;51.348;6.596;2022-10-31T13:46:24;7.30;;;3.25;;
28774;SDS011;15926;51.348;6.596;2022-10-31T13:48:50;5.90;;;3.03;;
28774;SDS011;15926;51.348;6.596;2022-10-31T13:51:24;4.45;;;2.60;;
28774;SDS011;15926;51.348;6.596;2022-10-31T14:01:27;4.18;;;2.65;;
28774;SDS011;15926;51.348;6.596;2022-10-31T14:03:58;3.53;;;2.80;;
28774;SDS011;15926;51.348;6.596;2022-10-31T14:06:34;3.85;;;3.03;;
28774;SDS011;15926;51.348;6.596;2022-10-31T14:09:00;6.22;;;2.70;;
28774;SDS011;15926;51.348;6.596;2022-10-31T14:11:27;5.45;;;3.05;;
28774;SDS011;15926;51.348;6.596;2022-10-31T14:13:54;6.50;;;2.85;;
28774;SDS011;15926;51.348;6.596;2022-10-31T14:16:25;3.08;;;2.20;;
28774;SDS011;15926;51.348;6.596;2022-10-31T14:23:51;6.75;;;2.78;;
28774;SDS011;15926;51.348;6.596;2022-10-31T14:28:47;4.80;;;2.53;;
28774;SDS011;15926;51.348;6.596;2022-10-31T14:42:05;3.95;;;2.60;;
28774;SDS011;15926;51.348;6.596;2022-10-31T14:47:51;6.38;;;3.90;;
28774;SDS011;15926;51.348;6.596;2022-10-31T14:52:36;6.22;;;2.90;;
28774;SDS011;15926;51.348;6.596;2022-10-31T14:55:02;9.48;;;2.65;;
28774;SDS011;15926;51.348;6.596;2022-10-31T14:57:32;6.27;;;3.10;;
28774;SDS011;15926;51.348;6.596;2022-10-31T15:00:33;4.72;;;3.00;;
28774;SDS011;15926;51.348;6.596;2022-10-31T15:05:18;7.47;;;2.60;;
28774;SDS011;15926;51.348;6.596;2022-10-31T15:07:54;5.63;;;3.20;;
28774;SDS011;15926;51.348;6.596;2022-10-31T15:12:50;5.35;;;2.03;;
28774;SDS011;15926;51.348;6.596;2022-10-31T15:20:17;6.68;;;2.78;;
28774;SDS011;15926;51.348;6.596;2022-10-31T15:22:43;11.18;;;2.58;;
28774;SDS011;15926;51.348;6.596;2022-10-31T15:25:21;6.05;;;3.08;;
28774;SDS011;15926;51.348;6.596;2022-10-31T15:27:47;3.67;;;2.78;;
28774;SDS011;15926;51.348;6.596;2022-10-31T15:30:18;6.18;;;2.60;;
28774;SDS011;15926;51.348;6.596;2022-10-31T15:32:45;11.55;;;2.63;;
28774;SDS011;15926;51.348;6.596;2022-10-31T15:35:14;3.88;;;2.50;;
28774;SDS011;15926;51.348;6.596;2022-10-31T15:37:44;7.50;;;2.40;;
28774;SDS011;15926;51.348;6.596;2022-10-31T15:40:15;4.25;;;2.42;;
28774;SDS011;15926;51.348;6.596;2022-10-31T15:42:41;4.78;;;2.40;;
28774;SDS011;15926;51.348;6.596;2022-10-31T15:47:36;6.25;;;2.55;;
28774;SDS011;15926;51.348;6.596;2022-10-31T15:50:03;5.05;;;2.80;;
28774;SDS011;15926;51.348;6.596;2022-10-31T15:52:43;5.53;;;2.65;;
28774;SDS011;15926;51.348;6.596;2022-10-31T15:57:39;3.42;;;2.60;;
28774;SDS011;15926;51.348;6.596;2022-10-31T16:00:06;6.50;;;2.65;;
28774;SDS011;15926;51.348;6.596;2022-10-31T16:02:32;6.53;;;2.45;;
28774;SDS011;15926;51.348;6.596;2022-10-31T16:04:59;7.70;;;2.50;;
28774;SDS011;15926;51.348;6.596;2022-10-31T16:07:26;8.65;;;2.17;;
28774;SDS011;15926;51.348;6.596;2022-10-31T16:12:18;7.00;;;2.20;;
28774;SDS011;15926;51.348;6.596;2022-10-31T16:14:44;8.38;;;2.90;;
28774;SDS011;15926;51.348;6.596;2022-10-31T16:17:11;4.95;;;2.50;;
28774;SDS011;15926;51.348;6.596;2022-10-31T16:19:43;6.05;;;2.58;;
28774;SDS011;15926;51.348;6.596;2022-10-31T16:22:12;2.90;;;2.33;;
28774;SDS011;15926;51.348;6.596;2022-10-31T16:24:44;4.20;;;2.75;;
28774;SDS011;15926;51.348;6.596;2022-10-31T16:27:18;5.10;;;2.08;;
28774;SDS011;15926;51.348;6.596;2022-10-31T16:29:48;3.75;;;2.42;;
28774;SDS011;15926;51.348;6.596;2022-10-31T16:32:24;3.40;;;2.35;;
28774;SDS011;15926;51.348;6.596;2022-10-31T16:34:57;4.55;;;2.42;;
28774;SDS011;15926;51.348;6.596;2022-10-31T16:37:23;3.55;;;2.85;;
28774;SDS011;15926;51.348;6.596;2022-10-31T16:39:49;5.43;;;2.83;;
28774;SDS011;15926;51.348;6.596;2022-10-31T16:42:15;6.43;;;3.20;;
28774;SDS011;15926;51.348;6.596;2022-10-31T16:44:41;4.30;;;2.67;;
28774;SDS011;15926;51.348;6.596;2022-10-31T16:47:13;8.68;;;3.03;;
28774;SDS011;15926;51.348;6.596;2022-10-31T16:49:40;4.55;;;2.42;;
28774;SDS011;15926;51.348;6.596;2022-10-31T16:52:07;6.53;;;2.55;;
28774;SDS011;15926;51.348;6.596;2022-10-31T16:54:33;3.42;;;2.70;;
28774;SDS011;15926;51.348;6.596;2022-10-31T16:56:59;6.30;;;2.42;;
28774;SDS011;15926;51.348;6.596;2022-10-31T16:59:26;3.80;;;2.30;;
28774;SDS011;15926;51.348;6.596;2022-10-31T17:01:52;8.98;;;2.60;;
28774;SDS011;15926;51.348;6.596;2022-10-31T17:04:19;5.50;;;2.63;;
28774;SDS011;15926;51.348;6.596;2022-10-31T17:06:45;10.55;;;2.70;;
28774;SDS011;15926;51.348;6.596;2022-10-31T17:09:12;6.85;;;2.38;;
28774;SDS011;15926;51.348;6.596;2022-10-31T17:11:39;5.57;;;3.33;;
28774;SDS011;15926;51.348;6.596;2022-10-31T17:14:07;6.03;;;2.60;;
28774;SDS011;15926;51.348;6.596;2022-10-31T17:16:34;7.63;;;2.67;;
28774;SDS011;15926;51.348;6.596;2022-10-31T17:19:00;5.30;;;3.28;;
28774;SDS011;15926;51.348;6.596;2022-10-31T17:21:26;7.88;;;3.75;;
28774;SDS011;15926;51.348;6.596;2022-10-31T17:23:52;6.97;;;3.00;;
28774;SDS011;15926;51.348;6.596;2022-10-31T17:26:19;4.70;;;2.28;;
28774;SDS011;15926;51.348;6.596;2022-10-31T17:28:45;3.55;;;2.72;;
28774;SDS011;15926;51.348;6.596;2022-10-31T17:31:18;8.13;;;2.33;;
28774;SDS011;15926;51.348;6.596;2022-10-31T17:33:45;8.57;;;2.67;;
28774;SDS011;15926;51.348;6.596;2022-10-31T17:36:11;8.27;;;2.13;;
28774;SDS011;15926;51.348;6.596;2022-10-31T17:38:37;8.70;;;3.55;;
28774;SDS011;15926;51.348;6.596;2022-10-31T17:41:04;4.13;;;2.80;;
28774;SDS011;15926;51.348;6.596;2022-10-31T17:43:30;8.95;;;2.45;;
28774;SDS011;15926;51.348;6.596;2022-10-31T17:45:57;4.50;;;2.47;;
28774;SDS011;15926;51.348;6.596;2022-10-31T17:48:24;4.57;;;2.47;;
28774;SDS011;15926;51.348;6.596;2022-10-31T17:50:50;6.47;;;3.00;;
28774;SDS011;15926;51.348;6.596;2022-10-31T17:53:16;7.40;;;2.38;;
28774;SDS011;15926;51.348;6.596;2022-10-31T17:55:42;3.95;;;2.33;;
28774;SDS011;15926;51.348;6.596;2022-10-31T17:58:08;4.82;;;2.65;;
28774;SDS011;15926;51.348;6.596;2022-10-31T18:00:38;5.25;;;2.35;;
28774;SDS011;15926;51.348;6.596;2022-10-31T18:03:05;6.82;;;2.17;;
28774;SDS011;15926;51.348;6.596;2022-10-31T18:05:31;10.05;;;3.05;;
28774;SDS011;15926;51.348;6.596;2022-10-31T18:07:58;5.80;;;2.45;;
28774;SDS011;15926;51.348;6.596;2022-10-31T18:10:24;6.15;;;2.38;;
28774;SDS011;15926;51.348;6.596;2022-10-31T18:12:50;4.68;;;2.20;;
28774;SDS011;15926;51.348;6.596;2022-10-31T18:15:16;6.30;;;2.67;;
28774;SDS011;15926;51.348;6.596;2022-10-31T18:17:44;7.60;;;2.47;;
28774;SDS011;15926;51.348;6.596;2022-10-31T18:20:10;5.55;;;2.45;;
28774;SDS011;15926;51.348;6.596;2022-10-31T18:22:36;10.35;;;2.38;;
28774;SDS011;15926;51.348;6.596;2022-10-31T18:25:03;7.47;;;2.95;;
28774;SDS011;15926;51.348;6.596;2022-10-31T18:27:29;6.82;;;3.00;;
28774;SDS011;15926;51.348;6.596;2022-10-31T18:29:55;7.38;;;2.80;;
28774;SDS011;15926;51.348;6.596;2022-10-31T18:32:21;5.90;;;2.60;;
28774;SDS011;15926;51.348;6.596;2022-10-31T18:34:47;5.15;;;3.45;;
28774;SDS011;15926;51.348;6.596;2022-10-31T18:37:13;5.80;;;2.50;;
28774;SDS011;15926;51.348;6.596;2022-10-31T18:39:39;4.53;;;2.58;;
28774;SDS011;15926;51.348;6.596;2022-10-31T18:42:05;8.07;;;2.67;;
28774;SDS011;15926;51.348;6.596;2022-10-31T18:44:31;5.20;;;2.60;;
28774;SDS011;15926;51.348;6.596;2022-10-31T18:46:58;5.10;;;2.28;;
28774;SDS011;15926;51.348;6.596;2022-10-31T18:49:24;6.60;;;2.58;;
28774;SDS011;15926;51.348;6.596;2022-10-31T18:51:51;4.45;;;2.35;;
28774;SDS011;15926;51.348;6.596;2022-10-31T18:54:17;4.93;;;2.33;;
28774;SDS011;15926;51.348;6.596;2022-10-31T18:56:43;6.45;;;2.58;;
28774;SDS011;15926;51.348;6.596;2022-10-31T18:59:10;8.90;;;2.78;;
28774;SDS011;15926;51.348;6.596;2022-10-31T19:01:36;8.63;;;3.40;;
28774;SDS011;15926;51.348;6.596;2022-10-31T19:04:02;6.55;;;2.70;;
28774;SDS011;15926;51.348;6.596;2022-10-31T19:06:28;8.52;;;3.20;;
28774;SDS011;15926;51.348;6.596;2022-10-31T19:09:04;11.55;;;3.42;;
28774;SDS011;15926;51.348;6.596;2022-10-31T19:11:33;9.27;;;3.10;;
28774;SDS011;15926;51.348;6.596;2022-10-31T19:14:00;9.73;;;3.70;;
28774;SDS011;15926;51.348;6.596;2022-10-31T19:16:26;9.00;;;3.70;;
28774;SDS011;15926;51.348;6.596;2022-10-31T19:18:53;6.95;;;3.10;;
28774;SDS011;15926;51.348;6.596;2022-10-31T19:21:23;11.77;;;3.70;;
28774;SDS011;15926;51.348;6.596;2022-10-31T19:23:51;9.70;;;2.85;;
28774;SDS011;15926;51.348;6.596;2022-10-31T19:26:17;9.75;;;4.10;;
28774;SDS011;15926;51.348;6.596;2022-10-31T19:28:43;8.50;;;3.15;;
28774;SDS011;15926;51.348;6.596;2022-10-31T19:31:09;8.10;;;3.38;;
28774;SDS011;15926;51.348;6.596;2022-10-31T19:33:35;6.57;;;2.78;;
28774;SDS011;15926;51.348;6.596;2022-10-31T19:38:28;4.13;;;2.97;;
28774;SDS011;15926;51.348;6.596;2022-10-31T19:40:55;4.97;;;2.72;;
28774;SDS011;15926;51.348;6.596;2022-10-31T19:43:21;4.68;;;2.55;;
28774;SDS011;15926;51.348;6.596;2022-10-31T19:45:54;7.43;;;2.95;;
28774;SDS011;15926;51.348;6.596;2022-10-31T19:48:21;7.32;;;3.30;;
28774;SDS011;15926;51.348;6.596;2022-10-31T19:50:47;4.07;;;2.67;;
28774;SDS011;15926;51.348;6.596;2022-10-31T19:53:13;4.57;;;2.60;;
28774;SDS011;15926;51.348;6.596;2022-10-31T19:55:39;6.78;;;2.78;;
28774;SDS011;15926;51.348;6.596;2022-10-31T19:58:05;6.65;;;2.90;;
28774;SDS011;15926;51.348;6.596;2022-10-31T20:00:31;4.10;;;2.30;;
28774;SDS011;15926;51.348;6.596;2022-10-31T20:02:57;7.47;;;3.00;;
28774;SDS011;15926;51.348;6.596;2022-10-31T20:05:24;6.72;;;3.10;;
28774;SDS011;15926;51.348;6.596;2022-10-31T20:07:50;6.80;;;2.97;;
28774;SDS011;15926;51.348;6.596;2022-10-31T20:10:16;7.50;;;3.25;;
28774;SDS011;15926;51.348;6.596;2022-10-31T20:12:42;12.15;;;3.42;;
28774;SDS011;15926;51.348;6.596;2022-10-31T20:15:08;4.03;;;3.25;;
28774;SDS011;15926;51.348;6.596;2022-10-31T20:17:34;5.30;;;3.70;;
28774;SDS011;15926;51.348;6.596;2022-10-31T20:20:00;5.50;;;2.95;;
28774;SDS011;15926;51.348;6.596;2022-10-31T20:22:32;5.28;;;2.85;;
28774;SDS011;15926;51.348;6.596;2022-10-31T20:24:58;8.18;;;2.95;;
28774;SDS011;15926;51.348;6.596;2022-10-31T20:27:24;8.43;;;3.30;;
28774;SDS011;15926;51.348;6.596;2022-10-31T20:29:50;4.78;;;2.13;;
28774;SDS011;15926;51.348;6.596;2022-10-31T20:32:18;6.32;;;2.80;;
28774;SDS011;15926;51.348;6.596;2022-10-31T20:34:44;6.13;;;3.05;;
28774;SDS011;15926;51.348;6.596;2022-10-31T20:37:10;9.80;;;3.25;;
28774;SDS011;15926;51.348;6.596;2022-10-31T20:39:36;7.05;;;2.90;;
28774;SDS011;15926;51.348;6.596;2022-10-31T20:42:02;6.28;;;2.67;;
28774;SDS011;15926;51.348;6.596;2022-10-31T20:44:29;3.83;;;2.60;;
28774;SDS011;15926;51.348;6.596;2022-10-31T20:46:55;7.15;;;3.28;;
28774;SDS011;15926;51.348;6.596;2022-10-31T20:49:21;4.10;;;2.55;;
28774;SDS011;15926;51.348;6.596;2022-10-31T20:51:47;7.15;;;3.35;;
28774;SDS011;15926;51.348;6.596;2022-10-31T20:54:13;4.45;;;3.00;;
28774;SDS011;15926;51.348;6.596;2022-10-31T20:56:39;5.65;;;3.13;;
28774;SDS011;15926;51.348;6.596;2022-10-31T20:59:05;4.65;;;3.00;;
28774;SDS011;15926;51.348;6.596;2022-10-31T21:01:32;7.97;;;2.88;;
28774;SDS011;15926;51.348;6.596;2022-10-31T21:04:00;3.27;;;2.80;;
28774;SDS011;15926;51.348;6.596;2022-10-31T21:06:26;3.83;;;3.17;;
28774;SDS011;15926;51.348;6.596;2022-10-31T21:08:53;5.70;;;3.15;;
28774;SDS011;15926;51.348;6.596;2022-10-31T21:11:20;4.88;;;2.97;;
28774;SDS011;15926;51.348;6.596;2022-10-31T21:13:46;6.85;;;3.13;;
28774;SDS011;15926;51.348;6.596;2022-10-31T21:16:17;7.35;;;3.13;;
28774;SDS011;15926;51.348;6.596;2022-10-31T21:18:43;9.82;;;3.30;;
28774;SDS011;15926;51.348;6.596;2022-10-31T21:21:11;7.30;;;3.13;;
28774;SDS011;15926;51.348;6.596;2022-10-31T21:23:37;8.45;;;3.25;;
28774;SDS011;15926;51.348;6.596;2022-10-31T21:26:11;8.63;;;3.33;;
28774;SDS011;15926;51.348;6.596;2022-10-31T21:28:38;7.18;;;2.80;;
28774;SDS011;15926;51.348;6.596;2022-10-31T21:31:05;6.03;;;2.97;;
28774;SDS011;15926;51.348;6.596;2022-10-31T21:33:31;6.25;;;3.40;;
28774;SDS011;15926;51.348;6.596;2022-10-31T21:35:58;7.28;;;3.40;;
28774;SDS011;15926;51.348;6.596;2022-10-31T21:38:24;8.30;;;3.60;;
28774;SDS011;15926;51.348;6.596;2022-10-31T21:40:49;10.15;;;3.30;;
28774;SDS011;15926;51.348;6.596;2022-10-31T21:43:15;5.03;;;3.10;;
28774;SDS011;15926;51.348;6.596;2022-10-31T21:45:42;5.38;;;3.28;;
28774;SDS011;15926;51.348;6.596;2022-10-31T21:48:08;4.85;;;2.97;;
28774;SDS011;15926;51.348;6.596;2022-10-31T21:50:34;6.13;;;2.97;;
28774;SDS011;15926;51.348;6.596;2022-10-31T21:53:00;6.60;;;3.20;;
28774;SDS011;15926;51.348;6.596;2022-10-31T21:55:46;5.10;;;3.25;;
28774;SDS011;15926;51.348;6.596;2022-10-31T21:58:12;4.88;;;2.90;;
